sensor_id;sensor_type;location;lat;lon;timestamp;P1;durP1;ratioP1;P2;durP2;ratioP2
61471;SDS011;47337;54.068;12.114;2022-09-09T00:03:36;27.38;;;16.98;;
61471;SDS011;47337;54.068;12.114;2022-09-09T00:06:29;29.83;;;18.77;;
61471;SDS011;47337;54.068;12.114;2022-09-09T00:09:09;25.23;;;17.23;;
61471;SDS011;47337;54.068;12.114;2022-09-09T00:11:46;29.38;;;17.58;;
61471;SDS011;47337;54.068;12.114;2022-09-09T00:14:18;26.90;;;17.45;;
61471;SDS011;47337;54.068;12.114;2022-09-09T00:16:54;27.05;;;16.48;;
61471;SDS011;47337;54.068;12.114;2022-09-09T00:19:24;26.88;;;16.30;;
61471;SDS011;47337;54.068;12.114;2022-09-09T00:25:16;25.33;;;16.48;;
61471;SDS011;47337;54.068;12.114;2022-09-09T00:27:45;25.40;;;15.25;;
61471;SDS011;47337;54.068;12.114;2022-09-09T00:30:14;25.23;;;16.55;;
61471;SDS011;47337;54.068;12.114;2022-09-09T00:32:53;26.42;;;16.52;;
61471;SDS011;47337;54.068;12.114;2022-09-09T00:37:55;28.83;;;17.02;;
61471;SDS011;47337;54.068;12.114;2022-09-09T01:01:51;32.90;;;18.23;;
61471;SDS011;47337;54.068;12.114;2022-09-09T01:04:20;32.20;;;17.73;;
61471;SDS011;47337;54.068;12.114;2022-09-09T01:06:57;31.08;;;18.75;;
61471;SDS011;47337;54.068;12.114;2022-09-09T01:12:30;32.13;;;18.65;;
61471;SDS011;47337;54.068;12.114;2022-09-09T01:18:07;34.03;;;19.65;;
61471;SDS011;47337;54.068;12.114;2022-09-09T01:20:43;30.73;;;17.27;;
61471;SDS011;47337;54.068;12.114;2022-09-09T01:28:52;27.40;;;16.25;;
61471;SDS011;47337;54.068;12.114;2022-09-09T01:31:23;29.27;;;15.82;;
61471;SDS011;47337;54.068;12.114;2022-09-09T01:34:13;24.67;;;14.90;;
61471;SDS011;47337;54.068;12.114;2022-09-09T01:39:31;22.00;;;13.85;;
61471;SDS011;47337;54.068;12.114;2022-09-09T01:42:03;20.10;;;13.43;;
61471;SDS011;47337;54.068;12.114;2022-09-09T01:44:31;17.77;;;11.75;;
61471;SDS011;47337;54.068;12.114;2022-09-09T01:46:57;18.55;;;11.57;;
61471;SDS011;47337;54.068;12.114;2022-09-09T01:49:23;17.63;;;11.20;;
61471;SDS011;47337;54.068;12.114;2022-09-09T01:51:51;19.80;;;12.15;;
61471;SDS011;47337;54.068;12.114;2022-09-09T01:54:23;19.30;;;12.38;;
61471;SDS011;47337;54.068;12.114;2022-09-09T01:59:51;19.00;;;11.48;;
61471;SDS011;47337;54.068;12.114;2022-09-09T02:02:26;17.42;;;10.98;;
61471;SDS011;47337;54.068;12.114;2022-09-09T02:07:48;18.80;;;10.68;;
61471;SDS011;47337;54.068;12.114;2022-09-09T02:10:20;17.70;;;11.38;;
61471;SDS011;47337;54.068;12.114;2022-09-09T02:12:53;19.40;;;11.75;;
61471;SDS011;47337;54.068;12.114;2022-09-09T02:15:26;20.48;;;12.10;;
61471;SDS011;47337;54.068;12.114;2022-09-09T02:17:59;18.13;;;11.35;;
61471;SDS011;47337;54.068;12.114;2022-09-09T02:20:29;16.77;;;11.70;;
61471;SDS011;47337;54.068;12.114;2022-09-09T02:22:59;16.98;;;11.77;;
61471;SDS011;47337;54.068;12.114;2022-09-09T02:25:28;17.98;;;11.90;;
61471;SDS011;47337;54.068;12.114;2022-09-09T02:27:54;15.75;;;10.52;;
61471;SDS011;47337;54.068;12.114;2022-09-09T02:30:23;20.27;;;12.43;;
61471;SDS011;47337;54.068;12.114;2022-09-09T02:32:50;19.58;;;12.25;;
61471;SDS011;47337;54.068;12.114;2022-09-09T02:35:21;20.98;;;13.10;;
61471;SDS011;47337;54.068;12.114;2022-09-09T02:37:49;20.05;;;12.77;;
61471;SDS011;47337;54.068;12.114;2022-09-09T02:40:24;20.70;;;12.73;;
61471;SDS011;47337;54.068;12.114;2022-09-09T02:42:49;19.17;;;13.00;;
61471;SDS011;47337;54.068;12.114;2022-09-09T02:45:27;23.90;;;13.55;;
61471;SDS011;47337;54.068;12.114;2022-09-09T02:50:55;20.63;;;13.85;;
61471;SDS011;47337;54.068;12.114;2022-09-09T02:56:04;27.02;;;14.98;;
61471;SDS011;47337;54.068;12.114;2022-09-09T02:58:34;24.85;;;15.23;;
61471;SDS011;47337;54.068;12.114;2022-09-09T03:01:00;28.35;;;15.98;;
61471;SDS011;47337;54.068;12.114;2022-09-09T03:03:30;29.35;;;15.20;;
61471;SDS011;47337;54.068;12.114;2022-09-09T03:05:58;25.02;;;15.10;;
61471;SDS011;47337;54.068;12.114;2022-09-09T03:08:24;29.88;;;17.08;;
61471;SDS011;47337;54.068;12.114;2022-09-09T03:10:49;28.05;;;16.02;;
61471;SDS011;47337;54.068;12.114;2022-09-09T03:13:19;26.95;;;14.95;;
61471;SDS011;47337;54.068;12.114;2022-09-09T03:15:44;27.42;;;15.43;;
61471;SDS011;47337;54.068;12.114;2022-09-09T03:18:10;25.08;;;15.30;;
61471;SDS011;47337;54.068;12.114;2022-09-09T03:20:35;25.85;;;15.40;;
61471;SDS011;47337;54.068;12.114;2022-09-09T03:23:00;24.40;;;15.18;;
61471;SDS011;47337;54.068;12.114;2022-09-09T03:25:27;26.00;;;15.57;;
61471;SDS011;47337;54.068;12.114;2022-09-09T03:27:53;26.27;;;15.30;;
61471;SDS011;47337;54.068;12.114;2022-09-09T03:30:23;23.85;;;15.27;;
61471;SDS011;47337;54.068;12.114;2022-09-09T03:32:52;28.35;;;15.45;;
61471;SDS011;47337;54.068;12.114;2022-09-09T03:35:20;25.48;;;15.05;;
61471;SDS011;47337;54.068;12.114;2022-09-09T03:37:48;21.02;;;14.45;;
61471;SDS011;47337;54.068;12.114;2022-09-09T03:40:16;23.67;;;15.13;;
61471;SDS011;47337;54.068;12.114;2022-09-09T03:42:46;22.30;;;13.70;;
61471;SDS011;47337;54.068;12.114;2022-09-09T03:45:13;23.27;;;14.38;;
61471;SDS011;47337;54.068;12.114;2022-09-09T03:47:38;23.25;;;14.38;;
61471;SDS011;47337;54.068;12.114;2022-09-09T03:50:04;25.42;;;15.32;;
61471;SDS011;47337;54.068;12.114;2022-09-09T03:52:34;26.27;;;15.68;;
61471;SDS011;47337;54.068;12.114;2022-09-09T03:55:03;27.30;;;16.40;;
61471;SDS011;47337;54.068;12.114;2022-09-09T03:57:32;28.60;;;15.52;;
61471;SDS011;47337;54.068;12.114;2022-09-09T04:00:02;35.65;;;18.63;;
61471;SDS011;47337;54.068;12.114;2022-09-09T04:02:28;33.40;;;18.33;;
61471;SDS011;47337;54.068;12.114;2022-09-09T04:04:53;31.38;;;17.80;;
61471;SDS011;47337;54.068;12.114;2022-09-09T04:07:19;38.33;;;18.15;;
61471;SDS011;47337;54.068;12.114;2022-09-09T04:09:50;34.15;;;18.20;;
61471;SDS011;47337;54.068;12.114;2022-09-09T04:12:15;32.63;;;17.65;;
61471;SDS011;47337;54.068;12.114;2022-09-09T04:14:47;31.88;;;17.70;;
61471;SDS011;47337;54.068;12.114;2022-09-09T04:17:12;32.20;;;18.13;;
61471;SDS011;47337;54.068;12.114;2022-09-09T04:19:38;34.50;;;19.20;;
61471;SDS011;47337;54.068;12.114;2022-09-09T04:22:07;33.15;;;18.25;;
61471;SDS011;47337;54.068;12.114;2022-09-09T04:24:32;31.30;;;18.10;;
61471;SDS011;47337;54.068;12.114;2022-09-09T04:27:00;35.88;;;20.35;;
61471;SDS011;47337;54.068;12.114;2022-09-09T04:29:26;33.55;;;18.40;;
61471;SDS011;47337;54.068;12.114;2022-09-09T04:31:51;34.28;;;18.77;;
61471;SDS011;47337;54.068;12.114;2022-09-09T04:34:17;38.50;;;19.88;;
61471;SDS011;47337;54.068;12.114;2022-09-09T04:36:44;31.35;;;17.65;;
61471;SDS011;47337;54.068;12.114;2022-09-09T04:39:12;35.50;;;17.80;;
61471;SDS011;47337;54.068;12.114;2022-09-09T04:41:40;34.58;;;17.75;;
61471;SDS011;47337;54.068;12.114;2022-09-09T04:44:08;30.25;;;17.50;;
61471;SDS011;47337;54.068;12.114;2022-09-09T04:46:35;30.83;;;16.83;;
61471;SDS011;47337;54.068;12.114;2022-09-09T04:49:00;32.67;;;17.30;;
61471;SDS011;47337;54.068;12.114;2022-09-09T04:51:25;35.97;;;17.88;;
61471;SDS011;47337;54.068;12.114;2022-09-09T04:53:53;34.10;;;17.20;;
61471;SDS011;47337;54.068;12.114;2022-09-09T04:56:20;31.50;;;17.15;;
61471;SDS011;47337;54.068;12.114;2022-09-09T04:58:50;33.72;;;17.23;;
61471;SDS011;47337;54.068;12.114;2022-09-09T05:01:17;32.58;;;16.73;;
61471;SDS011;47337;54.068;12.114;2022-09-09T05:03:46;34.45;;;18.08;;
61471;SDS011;47337;54.068;12.114;2022-09-09T05:06:13;32.50;;;17.23;;
61471;SDS011;47337;54.068;12.114;2022-09-09T05:08:42;33.97;;;17.75;;
61471;SDS011;47337;54.068;12.114;2022-09-09T05:11:21;40.10;;;18.33;;
61471;SDS011;47337;54.068;12.114;2022-09-09T05:13:49;35.75;;;17.40;;
61471;SDS011;47337;54.068;12.114;2022-09-09T05:16:18;36.58;;;17.83;;
61471;SDS011;47337;54.068;12.114;2022-09-09T05:18:45;40.00;;;19.05;;
61471;SDS011;47337;54.068;12.114;2022-09-09T05:21:11;41.42;;;19.48;;
61471;SDS011;47337;54.068;12.114;2022-09-09T05:23:40;39.72;;;20.33;;
61471;SDS011;47337;54.068;12.114;2022-09-09T05:26:06;42.92;;;19.60;;
61471;SDS011;47337;54.068;12.114;2022-09-09T05:28:36;44.35;;;22.35;;
61471;SDS011;47337;54.068;12.114;2022-09-09T05:31:05;43.10;;;22.15;;
61471;SDS011;47337;54.068;12.114;2022-09-09T05:33:33;43.85;;;21.15;;
61471;SDS011;47337;54.068;12.114;2022-09-09T05:36:00;40.55;;;22.60;;
61471;SDS011;47337;54.068;12.114;2022-09-09T05:38:31;49.38;;;23.88;;
61471;SDS011;47337;54.068;12.114;2022-09-09T05:41:01;49.67;;;24.38;;
61471;SDS011;47337;54.068;12.114;2022-09-09T05:43:27;76.28;;;29.30;;
61471;SDS011;47337;54.068;12.114;2022-09-09T05:46:06;47.72;;;25.90;;
61471;SDS011;47337;54.068;12.114;2022-09-09T05:48:36;50.95;;;24.35;;
61471;SDS011;47337;54.068;12.114;2022-09-09T05:51:08;48.80;;;25.23;;
61471;SDS011;47337;54.068;12.114;2022-09-09T05:53:37;45.22;;;24.02;;
61471;SDS011;47337;54.068;12.114;2022-09-09T05:56:07;46.72;;;23.90;;
61471;SDS011;47337;54.068;12.114;2022-09-09T06:01:06;40.80;;;21.95;;
61471;SDS011;47337;54.068;12.114;2022-09-09T06:03:35;38.20;;;22.60;;
61471;SDS011;47337;54.068;12.114;2022-09-09T06:06:05;34.97;;;21.00;;
61471;SDS011;47337;54.068;12.114;2022-09-09T06:08:33;34.53;;;19.88;;
61471;SDS011;47337;54.068;12.114;2022-09-09T06:11:09;32.10;;;19.92;;
61471;SDS011;47337;54.068;12.114;2022-09-09T06:13:40;34.17;;;20.35;;
61471;SDS011;47337;54.068;12.114;2022-09-09T06:16:09;34.20;;;19.23;;
61471;SDS011;47337;54.068;12.114;2022-09-09T06:18:36;32.03;;;19.10;;
61471;SDS011;47337;54.068;12.114;2022-09-09T06:21:05;30.67;;;17.83;;
61471;SDS011;47337;54.068;12.114;2022-09-09T06:23:38;31.65;;;17.73;;
61471;SDS011;47337;54.068;12.114;2022-09-09T06:26:06;30.63;;;17.48;;
61471;SDS011;47337;54.068;12.114;2022-09-09T06:28:38;26.23;;;16.70;;
61471;SDS011;47337;54.068;12.114;2022-09-09T06:31:04;29.65;;;16.80;;
61471;SDS011;47337;54.068;12.114;2022-09-09T06:33:32;26.10;;;15.30;;
61471;SDS011;47337;54.068;12.114;2022-09-09T06:36:00;27.35;;;15.50;;
61471;SDS011;47337;54.068;12.114;2022-09-09T06:38:28;24.42;;;14.85;;
61471;SDS011;47337;54.068;12.114;2022-09-09T06:40:54;24.40;;;15.27;;
61471;SDS011;47337;54.068;12.114;2022-09-09T06:43:24;23.35;;;14.98;;
61471;SDS011;47337;54.068;12.114;2022-09-09T06:48:21;24.27;;;14.23;;
61471;SDS011;47337;54.068;12.114;2022-09-09T06:50:46;23.20;;;15.05;;
61471;SDS011;47337;54.068;12.114;2022-09-09T06:53:17;25.45;;;15.23;;
61471;SDS011;47337;54.068;12.114;2022-09-09T06:55:44;23.25;;;14.70;;
61471;SDS011;47337;54.068;12.114;2022-09-09T06:58:10;24.42;;;15.70;;
61471;SDS011;47337;54.068;12.114;2022-09-09T07:00:38;26.25;;;14.73;;
61471;SDS011;47337;54.068;12.114;2022-09-09T07:03:05;25.95;;;14.98;;
61471;SDS011;47337;54.068;12.114;2022-09-09T07:05:31;24.70;;;15.35;;
61471;SDS011;47337;54.068;12.114;2022-09-09T07:08:01;26.90;;;14.38;;
61471;SDS011;47337;54.068;12.114;2022-09-09T07:10:27;26.15;;;16.08;;
61471;SDS011;47337;54.068;12.114;2022-09-09T07:12:55;28.70;;;16.90;;
61471;SDS011;47337;54.068;12.114;2022-09-09T07:15:20;23.33;;;15.63;;
61471;SDS011;47337;54.068;12.114;2022-09-09T07:17:48;23.77;;;16.10;;
61471;SDS011;47337;54.068;12.114;2022-09-09T07:20:14;26.02;;;17.45;;
61471;SDS011;47337;54.068;12.114;2022-09-09T07:22:40;26.13;;;16.08;;
61471;SDS011;47337;54.068;12.114;2022-09-09T07:25:06;22.85;;;16.98;;
61471;SDS011;47337;54.068;12.114;2022-09-09T07:27:32;25.15;;;16.35;;
61471;SDS011;47337;54.068;12.114;2022-09-09T07:29:57;25.02;;;16.98;;
61471;SDS011;47337;54.068;12.114;2022-09-09T07:32:23;25.00;;;17.05;;
61471;SDS011;47337;54.068;12.114;2022-09-09T07:34:49;28.38;;;19.27;;
61471;SDS011;47337;54.068;12.114;2022-09-09T07:37:15;28.27;;;17.98;;
61471;SDS011;47337;54.068;12.114;2022-09-09T07:39:42;26.20;;;16.83;;
61471;SDS011;47337;54.068;12.114;2022-09-09T07:42:07;26.52;;;17.13;;
61471;SDS011;47337;54.068;12.114;2022-09-09T07:44:36;25.48;;;17.52;;
61471;SDS011;47337;54.068;12.114;2022-09-09T07:47:05;24.00;;;16.55;;
61471;SDS011;47337;54.068;12.114;2022-09-09T07:49:30;28.08;;;17.40;;
61471;SDS011;47337;54.068;12.114;2022-09-09T07:51:58;27.00;;;17.23;;
61471;SDS011;47337;54.068;12.114;2022-09-09T07:54:24;24.75;;;16.48;;
61471;SDS011;47337;54.068;12.114;2022-09-09T07:56:52;22.42;;;15.35;;
61471;SDS011;47337;54.068;12.114;2022-09-09T07:59:20;23.23;;;16.05;;
61471;SDS011;47337;54.068;12.114;2022-09-09T08:01:46;24.00;;;16.45;;
61471;SDS011;47337;54.068;12.114;2022-09-09T08:04:21;24.08;;;16.02;;
61471;SDS011;47337;54.068;12.114;2022-09-09T08:06:55;24.63;;;16.92;;
61471;SDS011;47337;54.068;12.114;2022-09-09T08:09:22;26.10;;;15.90;;
61471;SDS011;47337;54.068;12.114;2022-09-09T08:11:56;23.92;;;16.52;;
61471;SDS011;47337;54.068;12.114;2022-09-09T08:14:22;25.83;;;17.23;;
61471;SDS011;47337;54.068;12.114;2022-09-09T08:16:48;22.65;;;16.17;;
61471;SDS011;47337;54.068;12.114;2022-09-09T08:19:15;23.10;;;15.80;;
61471;SDS011;47337;54.068;12.114;2022-09-09T08:21:42;20.70;;;14.18;;
61471;SDS011;47337;54.068;12.114;2022-09-09T08:24:11;19.95;;;14.27;;
61471;SDS011;47337;54.068;12.114;2022-09-09T08:26:41;21.23;;;15.82;;
61471;SDS011;47337;54.068;12.114;2022-09-09T08:29:09;19.08;;;14.23;;
61471;SDS011;47337;54.068;12.114;2022-09-09T08:34:10;16.90;;;13.20;;
61471;SDS011;47337;54.068;12.114;2022-09-09T08:36:37;18.25;;;12.95;;
61471;SDS011;47337;54.068;12.114;2022-09-09T08:39:08;19.25;;;12.77;;
61471;SDS011;47337;54.068;12.114;2022-09-09T08:45:00;14.43;;;12.00;;
61471;SDS011;47337;54.068;12.114;2022-09-09T08:50:36;15.80;;;12.45;;
61471;SDS011;47337;54.068;12.114;2022-09-09T08:53:22;16.77;;;13.15;;
61471;SDS011;47337;54.068;12.114;2022-09-09T08:55:59;17.02;;;13.27;;
61471;SDS011;47337;54.068;12.114;2022-09-09T08:58:33;16.23;;;11.82;;
61471;SDS011;47337;54.068;12.114;2022-09-09T09:01:09;18.13;;;12.48;;
61471;SDS011;47337;54.068;12.114;2022-09-09T09:12:10;18.40;;;12.85;;
61471;SDS011;47337;54.068;12.114;2022-09-09T09:14:45;18.00;;;12.98;;
61471;SDS011;47337;54.068;12.114;2022-09-09T09:17:13;14.90;;;11.82;;
61471;SDS011;47337;54.068;12.114;2022-09-09T09:19:44;13.95;;;11.90;;
61471;SDS011;47337;54.068;12.114;2022-09-09T09:22:22;17.77;;;12.43;;
61471;SDS011;47337;54.068;12.114;2022-09-09T09:25:20;16.30;;;12.63;;
61471;SDS011;47337;54.068;12.114;2022-09-09T09:30:36;13.98;;;10.70;;
61471;SDS011;47337;54.068;12.114;2022-09-09T09:33:10;13.40;;;10.93;;
61471;SDS011;47337;54.068;12.114;2022-09-09T09:35:42;16.20;;;11.77;;
61471;SDS011;47337;54.068;12.114;2022-09-09T09:40:57;14.55;;;11.80;;
61471;SDS011;47337;54.068;12.114;2022-09-09T09:43:33;12.40;;;10.23;;
61471;SDS011;47337;54.068;12.114;2022-09-09T09:46:03;16.70;;;11.85;;
61471;SDS011;47337;54.068;12.114;2022-09-09T09:48:29;16.08;;;11.23;;
61471;SDS011;47337;54.068;12.114;2022-09-09T09:51:03;11.70;;;10.00;;
61471;SDS011;47337;54.068;12.114;2022-09-09T09:53:31;12.82;;;10.48;;
61471;SDS011;47337;54.068;12.114;2022-09-09T09:55:59;11.02;;;9.85;;
61471;SDS011;47337;54.068;12.114;2022-09-09T09:58:29;11.75;;;10.55;;
61471;SDS011;47337;54.068;12.114;2022-09-09T10:00:58;10.98;;;9.52;;
61471;SDS011;47337;54.068;12.114;2022-09-09T10:05:53;10.02;;;8.23;;
61471;SDS011;47337;54.068;12.114;2022-09-09T10:08:18;10.23;;;9.10;;
61471;SDS011;47337;54.068;12.114;2022-09-09T10:14:03;11.27;;;8.88;;
61471;SDS011;47337;54.068;12.114;2022-09-09T10:19:03;10.55;;;8.57;;
61471;SDS011;47337;54.068;12.114;2022-09-09T10:27:09;8.07;;;7.13;;
61471;SDS011;47337;54.068;12.114;2022-09-09T10:35:23;8.88;;;7.97;;
61471;SDS011;47337;54.068;12.114;2022-09-09T10:38:55;10.43;;;7.72;;
61471;SDS011;47337;54.068;12.114;2022-09-09T10:49:10;9.00;;;7.72;;
61471;SDS011;47337;54.068;12.114;2022-09-09T10:54:39;12.23;;;7.90;;
61471;SDS011;47337;54.068;12.114;2022-09-09T10:57:42;10.30;;;7.68;;
61471;SDS011;47337;54.068;12.114;2022-09-09T11:00:18;9.25;;;6.85;;
61471;SDS011;47337;54.068;12.114;2022-09-09T11:02:44;7.00;;;6.05;;
61471;SDS011;47337;54.068;12.114;2022-09-09T11:07:55;7.25;;;4.95;;
61471;SDS011;47337;54.068;12.114;2022-09-09T11:12:59;6.25;;;4.90;;
61471;SDS011;47337;54.068;12.114;2022-09-09T11:18:02;8.88;;;5.22;;
61471;SDS011;47337;54.068;12.114;2022-09-09T11:20:29;5.88;;;5.05;;
61471;SDS011;47337;54.068;12.114;2022-09-09T11:25:46;6.15;;;4.63;;
61471;SDS011;47337;54.068;12.114;2022-09-09T11:44:37;4.70;;;4.03;;
61471;SDS011;47337;54.068;12.114;2022-09-09T11:47:14;8.23;;;5.28;;
61471;SDS011;47337;54.068;12.114;2022-09-09T11:49:46;7.68;;;5.43;;
61471;SDS011;47337;54.068;12.114;2022-09-09T11:52:22;7.93;;;5.07;;
61471;SDS011;47337;54.068;12.114;2022-09-09T11:54:54;11.55;;;4.55;;
61471;SDS011;47337;54.068;12.114;2022-09-09T11:57:30;4.78;;;4.35;;
61471;SDS011;47337;54.068;12.114;2022-09-09T12:00:03;4.90;;;4.10;;
61471;SDS011;47337;54.068;12.114;2022-09-09T12:02:31;4.65;;;4.10;;
61471;SDS011;47337;54.068;12.114;2022-09-09T12:10:56;5.95;;;3.80;;
61471;SDS011;47337;54.068;12.114;2022-09-09T12:13:18;4.43;;;3.45;;
61471;SDS011;47337;54.068;12.114;2022-09-09T12:15:57;4.25;;;2.97;;
61471;SDS011;47337;54.068;12.114;2022-09-09T12:18:37;4.75;;;2.70;;
61471;SDS011;47337;54.068;12.114;2022-09-09T12:23:47;3.75;;;2.65;;
61471;SDS011;47337;54.068;12.114;2022-09-09T12:26:22;3.85;;;2.47;;
61471;SDS011;47337;54.068;12.114;2022-09-09T12:34:02;5.40;;;3.05;;
61471;SDS011;47337;54.068;12.114;2022-09-09T12:36:35;4.15;;;2.83;;
61471;SDS011;47337;54.068;12.114;2022-09-09T12:39:18;6.15;;;2.88;;
61471;SDS011;47337;54.068;12.114;2022-09-09T12:41:53;5.20;;;2.83;;
61471;SDS011;47337;54.068;12.114;2022-09-09T12:44:25;4.35;;;2.75;;
61471;SDS011;47337;54.068;12.114;2022-09-09T12:46:53;5.30;;;3.60;;
61471;SDS011;47337;54.068;12.114;2022-09-09T12:49:34;5.78;;;3.25;;
61471;SDS011;47337;54.068;12.114;2022-09-09T12:52:13;4.70;;;3.17;;
61471;SDS011;47337;54.068;12.114;2022-09-09T12:54:45;6.57;;;3.60;;
61471;SDS011;47337;54.068;12.114;2022-09-09T12:57:12;7.47;;;2.83;;
61471;SDS011;47337;54.068;12.114;2022-09-09T12:59:39;4.13;;;2.60;;
61471;SDS011;47337;54.068;12.114;2022-09-09T13:02:11;3.95;;;2.40;;
61471;SDS011;47337;54.068;12.114;2022-09-09T13:04:43;3.65;;;2.35;;
61471;SDS011;47337;54.068;12.114;2022-09-09T13:07:10;5.07;;;1.92;;
61471;SDS011;47337;54.068;12.114;2022-09-09T13:09:36;4.15;;;2.50;;
61471;SDS011;47337;54.068;12.114;2022-09-09T13:12:02;2.42;;;2.22;;
61471;SDS011;47337;54.068;12.114;2022-09-09T13:14:33;3.97;;;2.70;;
61471;SDS011;47337;54.068;12.114;2022-09-09T13:17:03;4.10;;;2.58;;
61471;SDS011;47337;54.068;12.114;2022-09-09T13:19:31;2.70;;;2.25;;
61471;SDS011;47337;54.068;12.114;2022-09-09T13:22:11;2.88;;;2.05;;
61471;SDS011;47337;54.068;12.114;2022-09-09T13:24:44;4.40;;;2.47;;
61471;SDS011;47337;54.068;12.114;2022-09-09T13:27:30;4.90;;;2.65;;
61471;SDS011;47337;54.068;12.114;2022-09-09T13:29:58;5.78;;;2.30;;
61471;SDS011;47337;54.068;12.114;2022-09-09T13:32:27;4.75;;;2.60;;
61471;SDS011;47337;54.068;12.114;2022-09-09T13:34:54;4.47;;;2.38;;
61471;SDS011;47337;54.068;12.114;2022-09-09T13:37:28;4.80;;;2.35;;
61471;SDS011;47337;54.068;12.114;2022-09-09T13:40:17;4.35;;;3.03;;
61471;SDS011;47337;54.068;12.114;2022-09-09T13:42:44;4.03;;;3.38;;
61471;SDS011;47337;54.068;12.114;2022-09-09T13:45:20;6.43;;;3.20;;
61471;SDS011;47337;54.068;12.114;2022-09-09T13:47:48;5.60;;;3.00;;
61471;SDS011;47337;54.068;12.114;2022-09-09T13:50:29;6.90;;;3.20;;
61471;SDS011;47337;54.068;12.114;2022-09-09T13:52:56;5.18;;;3.00;;
61471;SDS011;47337;54.068;12.114;2022-09-09T13:55:30;4.50;;;3.10;;
61471;SDS011;47337;54.068;12.114;2022-09-09T13:58:00;5.32;;;2.90;;
61471;SDS011;47337;54.068;12.114;2022-09-09T14:00:29;3.78;;;2.47;;
61471;SDS011;47337;54.068;12.114;2022-09-09T14:02:56;2.80;;;2.20;;
61471;SDS011;47337;54.068;12.114;2022-09-09T14:05:27;3.80;;;1.90;;
61471;SDS011;47337;54.068;12.114;2022-09-09T14:07:54;5.03;;;2.70;;
61471;SDS011;47337;54.068;12.114;2022-09-09T14:10:20;4.25;;;2.38;;
61471;SDS011;47337;54.068;12.114;2022-09-09T14:12:48;5.07;;;2.50;;
61471;SDS011;47337;54.068;12.114;2022-09-09T14:15:13;3.15;;;2.33;;
61471;SDS011;47337;54.068;12.114;2022-09-09T14:17:41;3.17;;;2.00;;
61471;SDS011;47337;54.068;12.114;2022-09-09T14:20:07;4.13;;;2.15;;
61471;SDS011;47337;54.068;12.114;2022-09-09T14:22:36;3.80;;;2.28;;
61471;SDS011;47337;54.068;12.114;2022-09-09T14:25:04;1.85;;;1.67;;
61471;SDS011;47337;54.068;12.114;2022-09-09T14:27:30;3.67;;;1.95;;
61471;SDS011;47337;54.068;12.114;2022-09-09T14:29:55;2.38;;;2.00;;
61471;SDS011;47337;54.068;12.114;2022-09-09T14:32:22;4.50;;;2.20;;
61471;SDS011;47337;54.068;12.114;2022-09-09T14:34:48;2.90;;;2.40;;
61471;SDS011;47337;54.068;12.114;2022-09-09T14:37:20;2.95;;;2.20;;
61471;SDS011;47337;54.068;12.114;2022-09-09T14:39:46;4.05;;;2.15;;
61471;SDS011;47337;54.068;12.114;2022-09-09T14:42:12;4.68;;;2.05;;
61471;SDS011;47337;54.068;12.114;2022-09-09T14:44:39;5.05;;;2.47;;
61471;SDS011;47337;54.068;12.114;2022-09-09T14:47:07;3.67;;;2.17;;
61471;SDS011;47337;54.068;12.114;2022-09-09T14:49:33;6.20;;;2.67;;
61471;SDS011;47337;54.068;12.114;2022-09-09T14:52:03;3.30;;;2.60;;
61471;SDS011;47337;54.068;12.114;2022-09-09T14:54:31;4.45;;;2.20;;
61471;SDS011;47337;54.068;12.114;2022-09-09T14:56:57;4.45;;;2.78;;
61471;SDS011;47337;54.068;12.114;2022-09-09T14:59:23;5.13;;;2.80;;
61471;SDS011;47337;54.068;12.114;2022-09-09T15:01:49;3.08;;;2.50;;
61471;SDS011;47337;54.068;12.114;2022-09-09T15:04:17;3.63;;;2.50;;
61471;SDS011;47337;54.068;12.114;2022-09-09T15:06:43;3.78;;;2.53;;
61471;SDS011;47337;54.068;12.114;2022-09-09T15:09:12;3.40;;;2.83;;
61471;SDS011;47337;54.068;12.114;2022-09-09T15:11:37;4.30;;;2.65;;
61471;SDS011;47337;54.068;12.114;2022-09-09T15:14:06;3.42;;;2.58;;
61471;SDS011;47337;54.068;12.114;2022-09-09T15:16:33;4.65;;;2.83;;
61471;SDS011;47337;54.068;12.114;2022-09-09T15:19:00;3.53;;;2.88;;
61471;SDS011;47337;54.068;12.114;2022-09-09T15:21:30;6.78;;;2.80;;
61471;SDS011;47337;54.068;12.114;2022-09-09T15:23:59;5.82;;;3.13;;
61471;SDS011;47337;54.068;12.114;2022-09-09T15:26:27;6.80;;;3.35;;
61471;SDS011;47337;54.068;12.114;2022-09-09T15:28:53;7.60;;;3.22;;
61471;SDS011;47337;54.068;12.114;2022-09-09T15:33:54;5.03;;;3.30;;
61471;SDS011;47337;54.068;12.114;2022-09-09T15:36:26;4.80;;;2.83;;
61471;SDS011;47337;54.068;12.114;2022-09-09T15:39:03;4.47;;;3.10;;
61471;SDS011;47337;54.068;12.114;2022-09-09T15:41:30;7.00;;;3.25;;
61471;SDS011;47337;54.068;12.114;2022-09-09T15:43:59;2.90;;;2.67;;
61471;SDS011;47337;54.068;12.114;2022-09-09T15:49:06;4.32;;;3.20;;
61471;SDS011;47337;54.068;12.114;2022-09-09T15:51:34;3.30;;;3.00;;
61471;SDS011;47337;54.068;12.114;2022-09-09T15:54:00;4.80;;;3.17;;
61471;SDS011;47337;54.068;12.114;2022-09-09T15:56:26;4.32;;;3.05;;
61471;SDS011;47337;54.068;12.114;2022-09-09T15:58:58;4.75;;;3.40;;
61471;SDS011;47337;54.068;12.114;2022-09-09T16:01:26;8.52;;;3.92;;
61471;SDS011;47337;54.068;12.114;2022-09-09T16:03:52;4.65;;;3.58;;
61471;SDS011;47337;54.068;12.114;2022-09-09T16:06:18;6.10;;;3.75;;
61471;SDS011;47337;54.068;12.114;2022-09-09T16:08:49;9.68;;;4.00;;
61471;SDS011;47337;54.068;12.114;2022-09-09T16:11:20;4.22;;;3.72;;
61471;SDS011;47337;54.068;12.114;2022-09-09T16:13:51;9.55;;;4.95;;
61471;SDS011;47337;54.068;12.114;2022-09-09T16:16:18;6.45;;;4.70;;
61471;SDS011;47337;54.068;12.114;2022-09-09T16:18:49;5.53;;;4.30;;
61471;SDS011;47337;54.068;12.114;2022-09-09T16:23:49;5.53;;;4.47;;
61471;SDS011;47337;54.068;12.114;2022-09-09T16:26:16;6.13;;;4.38;;
61471;SDS011;47337;54.068;12.114;2022-09-09T16:28:43;6.18;;;4.53;;
61471;SDS011;47337;54.068;12.114;2022-09-09T16:31:17;10.20;;;5.05;;
61471;SDS011;47337;54.068;12.114;2022-09-09T16:36:12;4.90;;;3.85;;
61471;SDS011;47337;54.068;12.114;2022-09-09T16:38:39;6.03;;;4.60;;
61471;SDS011;47337;54.068;12.114;2022-09-09T16:41:05;7.43;;;5.05;;
61471;SDS011;47337;54.068;12.114;2022-09-09T16:43:33;9.00;;;5.38;;
61471;SDS011;47337;54.068;12.114;2022-09-09T16:46:01;7.18;;;5.32;;
61471;SDS011;47337;54.068;12.114;2022-09-09T16:48:30;6.00;;;5.18;;
61471;SDS011;47337;54.068;12.114;2022-09-09T16:51:03;7.55;;;4.78;;
61471;SDS011;47337;54.068;12.114;2022-09-09T16:53:34;7.47;;;4.90;;
61471;SDS011;47337;54.068;12.114;2022-09-09T16:56:06;8.90;;;4.55;;
61471;SDS011;47337;54.068;12.114;2022-09-09T16:58:32;4.90;;;3.85;;
61471;SDS011;47337;54.068;12.114;2022-09-09T17:00:58;4.80;;;3.67;;
61471;SDS011;47337;54.068;12.114;2022-09-09T17:03:29;6.05;;;3.75;;
61471;SDS011;47337;54.068;12.114;2022-09-09T17:05:58;6.97;;;4.50;;
61471;SDS011;47337;54.068;12.114;2022-09-09T17:08:27;7.18;;;4.60;;
61471;SDS011;47337;54.068;12.114;2022-09-09T17:10:56;5.70;;;3.50;;
61471;SDS011;47337;54.068;12.114;2022-09-09T17:13:22;5.00;;;3.60;;
61471;SDS011;47337;54.068;12.114;2022-09-09T17:15:48;3.28;;;2.85;;
61471;SDS011;47337;54.068;12.114;2022-09-09T17:18:13;3.60;;;2.03;;